Time;durP1;ratioP1;P1;durP2;ratioP2;P2;SDS_P1;SDS_P2;PMS_P1;PMS_P2;Temp;Humidity;BMP_temperature;BMP_pressure;BME280_temperature;BME280_humidity;BME280_pressure;Samples;Min_cycle;Max_cycle;Signal;HPM_P1;HPM_P2
2022/10/08 00:02:21;;;;;;;0.10;0.10;;;12.30;99.90;;;;;;5011304;28;20191;-81
2022/10/08 00:04:47;;;;;;;0.10;0.10;;;12.30;99.90;;;;;;5011752;28;20313;-80
2022/10/08 00:07:12;;;;;;;0.10;0.10;;;12.20;99.90;;;;;;5012405;28;20195;-80
2022/10/08 00:09:37;;;;;;;0.10;0.10;;;12.20;99.90;;;;;;5011369;28;20197;-80
2022/10/08 00:12:03;;;;;;;0.10;0.10;;;12.20;99.90;;;;;;5012035;28;20188;-80
2022/10/08 00:14:29;;;;;;;0.10;0.10;;;12.10;99.90;;;;;;5011632;28;20184;-80
2022/10/08 00:16:54;;;;;;;0.10;0.10;;;11.90;99.90;;;;;;5011926;28;20182;-81
2022/10/08 00:19:19;;;;;;;0.10;0.10;;;12.00;99.90;;;;;;5010307;28;20201;-81
2022/10/08 00:21:45;;;;;;;0.00;0.00;;;11.90;99.90;;;;;;5027222;28;20229;-81
2022/10/08 00:24:16;;;;;;;0.10;0.10;;;12.10;99.90;;;;;;5011836;28;20183;-80
2022/10/08 00:26:42;;;;;;;0.10;0.10;;;12.20;99.90;;;;;;5010390;28;20187;-80
2022/10/08 00:29:08;;;;;;;0.10;0.10;;;12.30;99.90;;;;;;5011365;28;20199;-79
2022/10/08 00:31:37;;;;;;;0.10;0.10;;;12.40;99.90;;;;;;5010485;28;20341;-79
2022/10/08 00:34:07;;;;;;;0.00;0.00;;;12.50;99.90;;;;;;5011081;28;20180;-79
2022/10/08 00:36:35;;;;;;;0.07;0.07;;;12.70;99.90;;;;;;5011873;28;20182;-79
2022/10/08 00:39:04;;;;;;;0.00;0.00;;;12.70;99.90;;;;;;5015568;28;20203;-78
2022/10/08 00:41:33;;;;;;;0.10;0.10;;;12.70;99.90;;;;;;5020500;28;20230;-78
2022/10/08 00:44:03;;;;;;;0.10;0.10;;;12.80;99.90;;;;;;5018712;28;20186;-78
2022/10/08 00:46:43;;;;;;;0.10;0.10;;;12.90;99.90;;;;;;5022678;28;20163;-78
2022/10/08 00:49:11;;;;;;;0.10;0.10;;;12.90;99.90;;;;;;5021656;28;20299;-78
2022/10/08 00:51:40;;;;;;;0.10;0.10;;;12.90;99.90;;;;;;5022578;28;20211;-78
2022/10/08 00:54:06;;;;;;;0.10;0.10;;;12.90;99.90;;;;;;5020781;28;20579;-78
2022/10/08 00:56:36;;;;;;;0.10;0.10;;;13.00;99.90;;;;;;5020958;28;20191;-78
2022/10/08 00:59:01;;;;;;;0.10;0.10;;;13.10;99.90;;;;;;5020574;28;20233;-78
2022/10/08 01:01:28;;;;;;;0.10;0.10;;;13.10;99.90;;;;;;5029837;28;20190;-79
2022/10/08 01:03:54;;;;;;;0.10;0.10;;;13.10;99.90;;;;;;5041381;28;20237;-78
2022/10/08 01:06:43;;;;;;;0.10;0.10;;;13.10;99.90;;;;;;5041380;28;20252;-79
2022/10/08 01:09:14;;;;;;;0.10;0.10;;;13.00;99.90;;;;;;5035982;28;20210;-78
2022/10/08 01:11:46;;;;;;;0.10;0.10;;;13.00;99.90;;;;;;5040019;28;20208;-78
2022/10/08 01:14:49;;;;;;;0.00;0.00;;;12.90;99.90;;;;;;5040708;28;20174;-79
2022/10/08 01:17:30;;;;;;;0.10;0.10;;;12.80;99.90;;;;;;5041654;28;20162;-78
2022/10/08 01:20:20;;;;;;;0.10;0.10;;;12.80;99.90;;;;;;5039760;28;20266;-78
2022/10/08 01:23:02;;;;;;;0.10;0.10;;;12.70;99.90;;;;;;5040601;28;20202;-78
2022/10/08 01:25:49;;;;;;;0.10;0.10;;;12.60;99.90;;;;;;5040260;28;20204;-78
2022/10/08 01:28:32;;;;;;;0.10;0.10;;;12.50;99.90;;;;;;5039290;28;20698;-78
2022/10/08 01:31:00;;;;;;;0.10;0.10;;;12.40;99.90;;;;;;5040262;28;20205;-78
2022/10/08 01:33:32;;;;;;;0.10;0.10;;;12.30;99.90;;;;;;5038498;28;20664;-78
2022/10/08 01:36:00;;;;;;;0.10;0.10;;;12.20;99.90;;;;;;5039746;28;20183;-78
2022/10/08 01:38:30;;;;;;;0.10;0.10;;;12.10;99.90;;;;;;5040114;28;20203;-78
2022/10/08 01:40:59;;;;;;;0.10;0.10;;;12.00;99.90;;;;;;5040822;28;20200;-78
2022/10/08 01:43:30;;;;;;;0.10;0.10;;;11.90;99.90;;;;;;5039662;28;20182;-78
2022/10/08 01:46:00;;;;;;;0.10;0.10;;;11.80;99.90;;;;;;5040156;28;20185;-78
2022/10/08 01:48:32;;;;;;;0.07;0.07;;;11.80;99.90;;;;;;5038938;28;20209;-78
2022/10/08 01:51:05;;;;;;;0.10;0.10;;;11.80;99.90;;;;;;5040278;28;20583;-78
2022/10/08 01:53:36;;;;;;;0.10;0.10;;;11.70;99.90;;;;;;5040098;28;20180;-78
2022/10/08 01:56:06;;;;;;;0.10;0.10;;;11.70;99.90;;;;;;5039495;28;20191;-78
2022/10/08 01:58:40;;;;;;;0.00;0.00;;;11.70;99.90;;;;;;5037220;28;20209;-78
2022/10/08 02:01:14;;;;;;;0.10;0.10;;;11.60;99.90;;;;;;5032794;28;20190;-77
2022/10/08 02:04:31;;;;;;;0.10;0.10;;;11.60;99.90;;;;;;5033945;28;20180;-77
2022/10/08 02:06:26;;;;;;;0.00;0.00;;;11.50;99.90;;;;;;5033764;28;20197;-77
2022/10/08 02:08:52;;;;;;;0.10;0.10;;;11.50;99.90;;;;;;5033840;28;20209;-78
2022/10/08 02:11:17;;;;;;;0.10;0.10;;;11.50;99.90;;;;;;5032559;28;20199;-78
2022/10/08 02:13:43;;;;;;;0.10;0.10;;;11.40;99.90;;;;;;5033472;28;20667;-78
2022/10/08 02:16:18;;;;;;;0.10;0.10;;;11.30;99.90;;;;;;5033515;28;20174;-78
2022/10/08 02:18:52;;;;;;;0.00;0.00;;;11.20;99.90;;;;;;5034483;28;20212;-79
2022/10/08 02:21:23;;;;;;;0.10;0.10;;;11.00;99.90;;;;;;5033077;28;20194;-78
2022/10/08 02:24:12;;;;;;;0.00;0.00;;;11.00;99.90;;;;;;5033163;28;20654;-77
2022/10/08 02:26:45;;;;;;;0.00;0.00;;;11.00;99.90;;;;;;5034797;28;20243;-78
2022/10/08 02:29:19;;;;;;;0.00;0.00;;;11.00;99.90;;;;;;5034229;28;20202;-77
2022/10/08 02:31:59;;;;;;;0.10;0.10;;;11.10;99.90;;;;;;5032471;28;20200;-77
2022/10/08 02:34:33;;;;;;;0.00;0.00;;;11.10;99.90;;;;;;5032509;28;20173;-78
2022/10/08 02:37:29;;;;;;;0.10;0.10;;;11.10;99.90;;;;;;5033142;28;20579;-78
2022/10/08 02:40:05;;;;;;;0.10;0.10;;;10.90;99.90;;;;;;5011778;28;20190;-78
2022/10/08 02:42:32;;;;;;;0.10;0.10;;;11.00;99.90;;;;;;5012125;28;20332;-77
2022/10/08 02:45:06;;;;;;;0.10;0.10;;;11.00;99.90;;;;;;5012219;28;20212;-78
2022/10/08 02:47:34;;;;;;;0.00;0.00;;;11.10;99.90;;;;;;5012228;28;20300;-78
2022/10/08 02:50:05;;;;;;;0.00;0.00;;;11.00;99.90;;;;;;5013049;28;20592;-78
2022/10/08 02:52:35;;;;;;;0.00;0.00;;;11.00;99.90;;;;;;5013113;28;20187;-78
2022/10/08 02:55:05;;;;;;;0.10;0.10;;;10.90;99.90;;;;;;5011857;28;20176;-77
2022/10/08 02:57:42;;;;;;;0.10;0.10;;;10.90;99.90;;;;;;5013378;28;20253;-78
2022/10/08 03:00:09;;;;;;;0.00;0.00;;;10.90;99.90;;;;;;5013081;28;20170;-78
2022/10/08 03:02:40;;;;;;;0.10;0.10;;;10.80;99.90;;;;;;5012668;28;20541;-78
2022/10/08 03:05:13;;;;;;;0.10;0.10;;;10.80;99.90;;;;;;5011907;28;20202;-78
2022/10/08 03:07:39;;;;;;;0.10;0.10;;;10.70;99.90;;;;;;5013625;28;20209;-78
2022/10/08 03:10:06;;;;;;;0.10;0.10;;;10.70;99.90;;;;;;5011496;28;20203;-78
2022/10/08 03:12:33;;;;;;;0.00;0.00;;;10.70;99.90;;;;;;5011886;28;20196;-78
2022/10/08 03:14:59;;;;;;;0.10;0.10;;;10.80;99.90;;;;;;5011487;28;20181;-78
2022/10/08 03:17:31;;;;;;;0.10;0.10;;;10.70;99.90;;;;;;5011563;28;20176;-77
2022/10/08 03:19:59;;;;;;;0.10;0.10;;;10.70;99.90;;;;;;5011682;28;20296;-79
2022/10/08 03:22:27;;;;;;;0.10;0.10;;;10.60;99.90;;;;;;5011559;28;20183;-78
2022/10/08 03:24:52;;;;;;;0.10;0.10;;;10.60;99.90;;;;;;5017583;28;20246;-78
2022/10/08 03:27:18;;;;;;;0.10;0.10;;;10.60;99.90;;;;;;5031848;28;20261;-77
2022/10/08 03:29:43;;;;;;;0.10;0.10;;;10.50;99.90;;;;;;5031780;28;20181;-78
2022/10/08 03:32:09;;;;;;;0.00;0.00;;;10.50;99.90;;;;;;5030456;28;20182;-77
2022/10/08 03:34:34;;;;;;;0.00;0.00;;;10.40;99.90;;;;;;5031161;28;20525;-78
2022/10/08 03:37:00;;;;;;;0.00;0.00;;;10.20;99.90;;;;;;5032502;28;20171;-79
2022/10/08 03:39:25;;;;;;;0.10;0.10;;;10.20;99.90;;;;;;5031596;28;20300;-78
2022/10/08 03:41:51;;;;;;;0.07;0.07;;;10.20;99.90;;;;;;5032263;28;20621;-78
2022/10/08 03:44:16;;;;;;;0.10;0.10;;;10.30;99.90;;;;;;5030926;28;20183;-78
2022/10/08 03:46:42;;;;;;;0.10;0.10;;;10.30;99.90;;;;;;5030390;28;20192;-78
2022/10/08 03:49:07;;;;;;;0.10;0.10;;;10.30;99.90;;;;;;5030016;28;20202;-78
2022/10/08 03:51:33;;;;;;;0.00;0.00;;;10.30;99.90;;;;;;5030301;28;20611;-78
2022/10/08 03:53:58;;;;;;;0.10;0.10;;;10.20;99.90;;;;;;5030902;28;20237;-77
2022/10/08 03:56:24;;;;;;;0.10;0.10;;;10.20;99.90;;;;;;5030482;28;20177;-78
2022/10/08 03:58:58;;;;;;;0.00;0.00;;;10.10;99.90;;;;;;5031328;28;20193;-78
2022/10/08 04:01:24;;;;;;;0.10;0.10;;;10.10;99.90;;;;;;5030665;28;20181;-78
2022/10/08 04:03:50;;;;;;;0.10;0.10;;;10.10;99.90;;;;;;5030851;28;20604;-78
2022/10/08 04:06:16;;;;;;;0.00;0.00;;;10.10;99.90;;;;;;5032159;28;20207;-78
2022/10/08 04:08:42;;;;;;;0.10;0.10;;;10.10;99.90;;;;;;5031409;28;20204;-78
2022/10/08 04:11:10;;;;;;;0.10;0.10;;;10.10;99.90;;;;;;5031703;28;20199;-78
2022/10/08 04:13:36;;;;;;;0.00;0.00;;;10.10;99.90;;;;;;5032944;28;20195;-78
2022/10/08 04:16:09;;;;;;;0.10;0.10;;;10.00;99.90;;;;;;5033875;28;20249;-77
2022/10/08 04:18:35;;;;;;;0.10;0.10;;;9.90;99.90;;;;;;5035286;28;20208;-77
2022/10/08 04:21:06;;;;;;;0.10;0.10;;;9.90;99.90;;;;;;5034888;28;20182;-78
2022/10/08 04:23:34;;;;;;;0.10;0.10;;;9.90;99.90;;;;;;5035571;28;20174;-77
2022/10/08 04:25:59;;;;;;;0.10;0.10;;;10.00;99.90;;;;;;5035015;28;20182;-77
2022/10/08 04:28:26;;;;;;;0.10;0.10;;;10.00;99.90;;;;;;5033831;28;20259;-78
2022/10/08 04:30:55;;;;;;;0.10;0.10;;;10.00;99.90;;;;;;5033461;28;20736;-78
2022/10/08 04:33:21;;;;;;;0.00;0.00;;;10.00;99.90;;;;;;5035234;28;20190;-78
2022/10/08 04:35:47;;;;;;;0.10;0.10;;;9.90;99.90;;;;;;5034330;28;20632;-78
2022/10/08 04:38:13;;;;;;;0.10;0.10;;;10.00;99.90;;;;;;5035057;28;20208;-77
2022/10/08 04:40:39;;;;;;;0.10;0.10;;;10.00;99.90;;;;;;5033733;28;20189;-78
2022/10/08 04:43:04;;;;;;;0.10;0.10;;;9.80;99.90;;;;;;5043568;28;20181;-78
2022/10/08 04:45:30;;;;;;;0.10;0.10;;;9.60;99.90;;;;;;5042774;28;20175;-78
2022/10/08 04:47:55;;;;;;;0.10;0.10;;;9.50;99.90;;;;;;5042467;28;20200;-77
2022/10/08 04:50:21;;;;;;;0.00;0.00;;;9.40;99.90;;;;;;5038074;28;20203;-78
2022/10/08 04:52:46;;;;;;;0.00;0.00;;;9.40;99.90;;;;;;5035610;28;20263;-78
2022/10/08 04:55:12;;;;;;;0.10;0.10;;;9.40;99.90;;;;;;5034595;28;20265;-77
2022/10/08 04:57:37;;;;;;;0.10;0.10;;;9.40;99.90;;;;;;5034346;28;20194;-78
2022/10/08 05:00:04;;;;;;;0.10;0.10;;;9.30;99.90;;;;;;5035021;28;20191;-78
2022/10/08 05:02:30;;;;;;;0.10;0.10;;;9.30;99.90;;;;;;5034386;28;20238;-77
2022/10/08 05:04:55;;;;;;;0.07;0.07;;;9.20;99.90;;;;;;5034335;28;20189;-78
2022/10/08 05:07:21;;;;;;;0.10;0.10;;;9.10;99.90;;;;;;5034124;28;20693;-78
2022/10/08 05:09:46;;;;;;;0.10;0.10;;;9.10;99.90;;;;;;5033817;28;20683;-78
2022/10/08 05:12:12;;;;;;;0.10;0.10;;;9.00;99.90;;;;;;5034703;28;20184;-78
2022/10/08 05:14:37;;;;;;;0.10;0.10;;;9.00;99.90;;;;;;5034675;28;20179;-78
2022/10/08 05:17:03;;;;;;;0.00;0.00;;;8.90;99.90;;;;;;5033417;28;20182;-78
2022/10/08 05:19:28;;;;;;;0.00;0.00;;;8.90;99.90;;;;;;5033267;28;20964;-77
2022/10/08 05:21:54;;;;;;;0.10;0.10;;;8.90;99.90;;;;;;5032711;28;20277;-78
2022/10/08 05:24:19;;;;;;;0.10;0.10;;;8.90;99.90;;;;;;5033010;28;20646;-77
2022/10/08 05:26:45;;;;;;;0.10;0.10;;;8.90;99.90;;;;;;5032486;28;20183;-78
2022/10/08 05:29:11;;;;;;;0.00;0.00;;;9.00;99.90;;;;;;5034432;28;20198;-78
2022/10/08 05:31:37;;;;;;;0.00;0.00;;;9.00;99.90;;;;;;5035269;28;20208;-78
2022/10/08 05:34:03;;;;;;;0.00;0.00;;;9.20;99.90;;;;;;5036984;28;20225;-78
2022/10/08 05:36:30;;;;;;;0.10;0.10;;;9.20;99.90;;;;;;5036205;28;20263;-78
2022/10/08 05:38:59;;;;;;;0.10;0.10;;;9.20;99.90;;;;;;5034556;28;20670;-79
2022/10/08 05:41:27;;;;;;;0.10;0.10;;;9.20;99.90;;;;;;5035756;28;20178;-78
2022/10/08 05:43:54;;;;;;;0.10;0.10;;;9.20;99.90;;;;;;5035174;28;20186;-78
2022/10/08 05:46:24;;;;;;;0.10;0.10;;;9.10;99.90;;;;;;5034868;28;20185;-78
2022/10/08 05:48:52;;;;;;;0.03;0.03;;;9.10;99.90;;;;;;5034462;28;20217;-79
2022/10/08 05:51:18;;;;;;;0.00;0.00;;;9.10;99.90;;;;;;5035547;28;20215;-78
2022/10/08 05:53:48;;;;;;;0.10;0.10;;;9.10;99.90;;;;;;5035920;28;20174;-78
2022/10/08 05:56:16;;;;;;;0.10;0.10;;;9.10;99.90;;;;;;5034560;28;20182;-79
2022/10/08 05:58:42;;;;;;;0.00;0.00;;;9.10;99.90;;;;;;5035549;28;20204;-78
2022/10/08 06:01:15;;;;;;;0.00;0.00;;;9.10;99.90;;;;;;5036000;28;20179;-78
2022/10/08 06:03:42;;;;;;;0.10;0.10;;;9.10;99.90;;;;;;5036436;28;20170;-78
2022/10/08 06:06:10;;;;;;;0.00;0.00;;;9.00;99.90;;;;;;5034219;28;20232;-79
2022/10/08 06:08:36;;;;;;;0.00;0.00;;;9.10;99.90;;;;;;5034405;28;20200;-79
2022/10/08 06:11:04;;;;;;;0.00;0.00;;;9.10;99.90;;;;;;5034526;28;20253;-78
2022/10/08 06:13:30;;;;;;;0.10;0.10;;;9.20;99.90;;;;;;5035640;28;20245;-78
2022/10/08 06:16:00;;;;;;;0.10;0.10;;;9.10;99.90;;;;;;5034318;28;20670;-78
2022/10/08 06:18:29;;;;;;;0.10;0.10;;;9.20;99.90;;;;;;5033699;28;20201;-78
2022/10/08 06:20:54;;;;;;;0.07;0.07;;;9.20;99.90;;;;;;5035275;28;20178;-78
2022/10/08 06:23:21;;;;;;;0.10;0.10;;;9.30;99.90;;;;;;5035576;28;20184;-78
2022/10/08 06:25:47;;;;;;;0.10;0.10;;;9.40;99.90;;;;;;5032666;28;20501;-78
2022/10/08 06:28:12;;;;;;;0.00;0.00;;;9.40;99.90;;;;;;5033066;28;20205;-78
2022/10/08 06:30:42;;;;;;;0.10;0.10;;;9.40;99.90;;;;;;5034338;28;20209;-78
2022/10/08 06:33:09;;;;;;;0.00;0.00;;;9.40;99.90;;;;;;5035275;28;20181;-78
2022/10/08 06:35:36;;;;;;;0.00;0.00;;;9.50;99.90;;;;;;5033947;28;20597;-78
2022/10/08 06:38:05;;;;;;;0.10;0.10;;;9.70;99.90;;;;;;5034685;28;20200;-79
2022/10/08 06:40:31;;;;;;;0.00;0.00;;;9.90;99.90;;;;;;5034071;28;20182;-77
2022/10/08 06:42:57;;;;;;;0.00;0.00;;;10.20;99.90;;;;;;5034878;28;20390;-78
2022/10/08 06:45:23;;;;;;;0.10;0.10;;;10.40;99.90;;;;;;5033347;28;20190;-78
2022/10/08 06:47:48;;;;;;;0.10;0.10;;;10.70;99.90;;;;;;5033985;28;20245;-79
2022/10/08 06:50:14;;;;;;;0.00;0.00;;;10.90;99.90;;;;;;5034590;28;20201;-78
2022/10/08 06:52:39;;;;;;;0.10;0.10;;;11.00;99.90;;;;;;5035445;28;20599;-78
2022/10/08 06:55:05;;;;;;;0.10;0.10;;;11.10;99.90;;;;;;5033745;28;20566;-79
2022/10/08 06:57:31;;;;;;;0.07;0.07;;;11.20;99.90;;;;;;5034083;28;20228;-78
2022/10/08 06:59:57;;;;;;;0.10;0.10;;;11.10;99.90;;;;;;5033497;28;20184;-78
2022/10/08 07:02:23;;;;;;;0.00;0.00;;;11.10;99.90;;;;;;5034181;28;20179;-78
2022/10/08 07:04:48;;;;;;;0.10;0.10;;;11.00;99.90;;;;;;5033979;28;20175;-78
2022/10/08 07:07:14;;;;;;;0.07;0.07;;;11.00;99.90;;;;;;5035424;28;20208;-78
2022/10/08 07:09:39;;;;;;;0.10;0.10;;;11.00;99.90;;;;;;5033762;28;20537;-78
2022/10/08 07:12:05;;;;;;;0.10;0.10;;;11.10;99.90;;;;;;5034035;28;20240;-79
2022/10/08 07:14:31;;;;;;;0.00;0.00;;;11.40;99.90;;;;;;5034115;28;20185;-79
2022/10/08 07:16:56;;;;;;;0.10;0.10;;;11.60;99.90;;;;;;5033616;28;20181;-79
2022/10/08 07:19:23;;;;;;;0.10;0.10;;;11.70;99.90;;;;;;5033703;28;20569;-78
2022/10/08 07:21:48;;;;;;;0.10;0.10;;;11.80;99.90;;;;;;5033991;28;20182;-79
2022/10/08 07:24:14;;;;;;;0.10;0.10;;;12.00;99.90;;;;;;5035043;28;20198;-78
2022/10/08 07:26:39;;;;;;;0.00;0.00;;;12.20;99.90;;;;;;5034006;28;20182;-79
2022/10/08 07:29:10;;;;;;;0.10;0.10;;;12.40;99.90;;;;;;5034922;28;20198;-78
2022/10/08 07:31:37;;;;;;;0.10;0.10;;;12.50;99.90;;;;;;5033891;28;20206;-79
2022/10/08 07:34:05;;;;;;;0.00;0.00;;;12.60;99.90;;;;;;5035032;28;20182;-78
2022/10/08 07:36:31;;;;;;;0.00;0.00;;;12.70;99.90;;;;;;5034126;28;20545;-79
2022/10/08 07:38:59;;;;;;;0.10;0.10;;;12.90;99.90;;;;;;5034770;28;20197;-78
2022/10/08 07:41:25;;;;;;;0.10;0.10;;;13.10;99.90;;;;;;5035128;28;20579;-79
2022/10/08 07:43:53;;;;;;;0.00;0.00;;;13.10;99.90;;;;;;5033999;28;20185;-79
2022/10/08 07:46:19;;;;;;;0.00;0.00;;;13.30;99.90;;;;;;5033896;28;20193;-78
2022/10/08 07:48:45;;;;;;;0.10;0.10;;;13.70;99.90;;;;;;5034612;28;20209;-78
2022/10/08 07:51:13;;;;;;;0.10;0.10;;;14.10;99.90;;;;;;5037106;28;20312;-79
2022/10/08 07:53:39;;;;;;;0.00;0.00;;;14.40;99.90;;;;;;5037468;28;20188;-79
2022/10/08 07:56:06;;;;;;;0.10;0.10;;;14.50;99.90;;;;;;5037331;28;20178;-78
2022/10/08 07:58:32;;;;;;;0.10;0.10;;;14.20;99.90;;;;;;5037396;28;20610;-78
2022/10/08 08:00:59;;;;;;;0.10;0.10;;;14.00;99.90;;;;;;5037678;28;20285;-78
2022/10/08 08:03:25;;;;;;;0.10;0.10;;;13.90;99.90;;;;;;5038352;28;20175;-78
2022/10/08 08:05:52;;;;;;;0.00;0.00;;;13.70;99.90;;;;;;5038891;28;20178;-79
2022/10/08 08:08:25;;;;;;;0.10;0.10;;;13.60;99.90;;;;;;5036953;28;20198;-77
2022/10/08 08:11:01;;;;;;;0.10;0.10;;;13.50;99.90;;;;;;5038144;28;20209;-78
2022/10/08 08:13:31;;;;;;;0.10;0.10;;;13.60;99.90;;;;;;5037232;28;20182;-78
2022/10/08 08:16:02;;;;;;;0.10;0.10;;;13.60;99.90;;;;;;5037086;28;20178;-79
2022/10/08 08:18:29;;;;;;;0.00;0.00;;;13.70;99.90;;;;;;5038163;28;20200;-79
2022/10/08 08:21:03;;;;;;;0.10;0.10;;;13.70;99.90;;;;;;5036733;28;20577;-78
2022/10/08 08:23:35;;;;;;;0.10;0.10;;;13.90;99.90;;;;;;5036451;28;20193;-78
2022/10/08 08:26:05;;;;;;;0.10;0.10;;;13.90;99.90;;;;;;5038014;28;20183;-79
2022/10/08 08:28:31;;;;;;;0.10;0.10;;;14.20;99.90;;;;;;5034882;28;20294;-78
2022/10/08 08:31:07;;;;;;;0.00;0.00;;;14.30;99.90;;;;;;5037217;28;20286;-78
2022/10/08 08:33:33;;;;;;;0.00;0.00;;;14.50;99.90;;;;;;5032644;28;20246;-79
2022/10/08 08:35:58;;;;;;;0.00;0.00;;;14.50;99.90;;;;;;5023286;28;20284;-79
2022/10/08 08:38:24;;;;;;;0.07;0.07;;;14.50;99.90;;;;;;5032030;28;20233;-79
2022/10/08 08:40:51;;;;;;;0.10;0.10;;;14.60;99.90;;;;;;5034099;28;20200;-78
2022/10/08 08:43:17;;;;;;;0.10;0.10;;;14.80;99.90;;;;;;5022978;28;20188;-79
2022/10/08 08:45:46;;;;;;;0.10;0.10;;;14.90;99.90;;;;;;5031391;28;20967;-79
2022/10/08 08:48:22;;;;;;;0.00;0.00;;;14.90;99.90;;;;;;5032981;28;20218;-79
2022/10/08 08:50:50;;;;;;;0.10;0.10;;;15.00;99.90;;;;;;5031233;28;20275;-83
2022/10/08 08:53:17;;;;;;;0.10;0.10;;;15.00;99.90;;;;;;5032443;28;20581;-78
2022/10/08 08:55:46;;;;;;;0.10;0.10;;;15.10;99.90;;;;;;5027297;28;20240;-79
2022/10/08 08:58:36;;;;;;;0.10;0.10;;;15.10;99.90;;;;;;5028007;28;20204;-81
2022/10/08 09:01:07;;;;;;;0.10;0.10;;;15.10;99.90;;;;;;5037523;28;20195;-80
2022/10/08 09:03:40;;;;;;;0.10;0.10;;;14.90;99.90;;;;;;5031472;28;20662;-79
2022/10/08 09:06:11;;;;;;;0.10;0.10;;;14.80;99.90;;;;;;5035492;28;20188;-79
2022/10/08 09:08:46;;;;;;;0.00;0.00;;;14.80;99.90;;;;;;5032411;28;20396;-78
2022/10/08 09:11:14;;;;;;;0.10;0.10;;;14.90;99.90;;;;;;5033719;28;20211;-78
2022/10/08 09:13:50;;;;;;;0.10;0.10;;;14.80;99.90;;;;;;5027973;28;20180;-78
2022/10/08 09:16:16;;;;;;;0.10;0.10;;;15.00;99.90;;;;;;5034387;28;20204;-79
2022/10/08 09:18:45;;;;;;;0.10;0.10;;;15.30;99.90;;;;;;5038716;28;20207;-79
2022/10/08 09:21:11;;;;;;;0.10;0.10;;;16.00;99.90;;;;;;5035442;28;20195;-79
2022/10/08 09:23:37;;;;;;;0.10;0.10;;;16.40;99.90;;;;;;5037293;28;20192;-79
2022/10/08 09:26:12;;;;;;;0.10;0.10;;;16.60;99.90;;;;;;5039300;28;20655;-79
2022/10/08 09:28:53;;;;;;;0.10;0.10;;;17.00;99.90;;;;;;5043791;28;20216;-79
2022/10/08 09:31:25;;;;;;;0.10;0.10;;;17.00;99.90;;;;;;5039001;28;20291;-79
2022/10/08 09:33:56;;;;;;;0.10;0.10;;;17.20;99.90;;;;;;5025870;28;20188;-79
2022/10/08 09:36:28;;;;;;;0.10;0.10;;;17.50;99.90;;;;;;5033877;28;20685;-79
2022/10/08 09:38:58;;;;;;;0.10;0.10;;;17.90;99.90;;;;;;5029849;28;20583;-79
2022/10/08 09:41:27;;;;;;;0.10;0.10;;;17.90;99.90;;;;;;5034173;28;20222;-79
2022/10/08 09:44:20;;;;;;;0.10;0.10;;;17.70;99.90;;;;;;5034775;28;20194;-79
2022/10/08 09:46:46;;;;;;;0.10;0.10;;;17.80;99.90;;;;;;5028669;28;20252;-79
2022/10/08 09:49:32;;;;;;;0.10;0.10;;;17.70;99.90;;;;;;5032583;28;20233;-79
2022/10/08 09:52:15;;;;;;;0.10;0.10;;;17.80;99.90;;;;;;5026709;28;20702;-79
2022/10/08 09:54:47;;;;;;;0.10;0.10;;;18.00;99.90;;;;;;5026355;28;20175;-79
2022/10/08 09:57:15;;;;;;;0.10;0.10;;;18.50;99.90;;;;;;5033653;28;20178;-79
2022/10/08 09:59:52;;;;;;;0.10;0.10;;;18.90;99.90;;;;;;5033718;28;20901;-79
2022/10/08 10:02:28;;;;;;;0.10;0.10;;;18.90;99.90;;;;;;5032194;28;20186;-79
2022/10/08 10:04:54;;;;;;;0.10;0.10;;;19.20;99.90;;;;;;5035710;28;20174;-79
2022/10/08 10:07:21;;;;;;;0.10;0.10;;;19.20;99.90;;;;;;5034828;28;20182;-79
2022/10/08 10:09:56;;;;;;;0.10;0.10;;;18.60;99.90;;;;;;5035595;28;20189;-79
2022/10/08 10:12:27;;;;;;;0.10;0.10;;;18.20;99.90;;;;;;5032889;28;20181;-79
2022/10/08 10:14:59;;;;;;;0.10;0.10;;;18.00;99.90;;;;;;5031362;28;20190;-79
2022/10/08 10:17:48;;;;;;;0.10;0.10;;;17.80;99.90;;;;;;5033683;28;20344;-79
2022/10/08 10:20:28;;;;;;;0.10;0.10;;;17.70;99.90;;;;;;5029057;28;20190;-80
2022/10/08 10:23:36;;;;;;;0.10;0.10;;;17.80;99.90;;;;;;5024594;28;20178;-79
2022/10/08 10:26:06;;;;;;;0.10;0.10;;;17.90;99.90;;;;;;5018406;28;20217;-79
2022/10/08 10:28:47;;;;;;;0.10;0.10;;;17.40;99.90;;;;;;4993665;28;20743;-79
2022/10/08 10:31:26;;;;;;;0.10;0.10;;;17.00;99.90;;;;;;5023220;28;20225;-79
2022/10/08 10:34:05;;;;;;;0.10;0.10;;;17.20;99.90;;;;;;5032170;28;20772;-79
2022/10/08 10:36:35;;;;;;;0.10;0.10;;;17.40;99.90;;;;;;5035096;28;20520;-78
2022/10/08 10:39:00;;;;;;;0.10;0.10;;;17.10;99.90;;;;;;5029094;28;20199;-79
2022/10/08 10:41:42;;;;;;;0.10;0.10;;;17.20;99.90;;;;;;5031997;28;20183;-80
2022/10/08 10:44:14;;;;;;;0.07;0.07;;;17.80;99.90;;;;;;5020263;28;20183;-79
2022/10/08 10:46:42;;;;;;;0.10;0.10;;;18.00;99.90;;;;;;5032037;28;20246;-79
2022/10/08 10:49:23;;;;;;;0.10;0.10;;;18.10;99.90;;;;;;5033387;28;20587;-79
2022/10/08 10:52:32;;;;;;;0.10;0.10;;;18.30;99.90;;;;;;5019984;28;20212;-82
2022/10/08 10:55:30;;;;;;;0.10;0.10;;;18.30;99.90;;;;;;5029426;28;20549;-79
2022/10/08 10:58:18;;;;;;;0.10;0.10;;;18.30;99.90;;;;;;5030427;28;20237;-79
2022/10/08 11:01:05;;;;;;;0.10;0.10;;;18.50;99.90;;;;;;5032245;28;20185;-79
2022/10/08 11:03:46;;;;;;;0.10;0.10;;;18.50;99.90;;;;;;5029692;28;20186;-80
2022/10/08 11:06:20;;;;;;;0.10;0.10;;;18.40;99.90;;;;;;5033234;28;20189;-79
2022/10/08 11:09:04;;;;;;;0.10;0.10;;;18.80;99.90;;;;;;5030562;28;20612;-79
2022/10/08 11:11:41;;;;;;;0.10;0.10;;;19.00;99.90;;;;;;5034386;28;20201;-79
2022/10/08 11:14:25;;;;;;;0.10;0.10;;;18.80;99.90;;;;;;5029487;28;20180;-80
2022/10/08 11:17:02;;;;;;;0.10;0.10;;;18.70;99.90;;;;;;5032071;28;20189;-80
2022/10/08 11:19:54;;;;;;;0.10;0.10;;;18.50;99.90;;;;;;5026247;28;20201;-79
2022/10/08 11:22:34;;;;;;;0.10;0.10;;;18.40;99.90;;;;;;5027292;28;20195;-81
2022/10/08 11:25:14;;;;;;;0.10;0.10;;;17.60;99.90;;;;;;5029008;28;20268;-79
2022/10/08 11:27:42;;;;;;;0.10;0.10;;;17.70;99.90;;;;;;5031122;28;20564;-79
2022/10/08 11:30:13;;;;;;;0.10;0.10;;;17.80;99.90;;;;;;5032271;28;20187;-79
2022/10/08 11:32:41;;;;;;;0.00;0.00;;;17.90;99.90;;;;;;5029166;28;20205;-79
2022/10/08 11:35:43;;;;;;;0.10;0.10;;;18.20;99.90;;;;;;5028894;28;20185;-80
2022/10/08 11:38:33;;;;;;;0.10;0.10;;;18.20;99.90;;;;;;5026392;28;20210;-79
2022/10/08 11:41:21;;;;;;;0.10;0.10;;;17.90;99.90;;;;;;5027838;28;20186;-79
2022/10/08 11:44:01;;;;;;;0.10;0.10;;;17.60;99.90;;;;;;5031387;28;20177;-80
2022/10/08 11:46:30;;;;;;;0.10;0.10;;;17.40;99.90;;;;;;5030387;28;20182;-80
2022/10/08 11:49:15;;;;;;;0.10;0.10;;;17.40;99.90;;;;;;5032647;28;20238;-80
2022/10/08 11:51:51;;;;;;;0.10;0.10;;;17.70;99.90;;;;;;5020270;28;20218;-79
2022/10/08 11:54:33;;;;;;;0.10;0.10;;;17.70;99.90;;;;;;5017862;28;20183;-79
2022/10/08 11:57:17;;;;;;;0.10;0.10;;;17.40;99.90;;;;;;5026566;28;20165;-79
2022/10/08 11:59:52;;;;;;;0.10;0.10;;;17.30;99.90;;;;;;5029007;28;20190;-80
2022/10/08 12:02:28;;;;;;;0.03;0.03;;;17.40;99.90;;;;;;5031324;28;20178;-79
2022/10/08 12:04:57;;;;;;;0.10;0.10;;;17.60;99.90;;;;;;5032409;28;20174;-79
2022/10/08 12:07:25;;;;;;;0.10;0.10;;;17.60;99.90;;;;;;5032339;28;20273;-80
2022/10/08 12:10:06;;;;;;;0.10;0.10;;;17.30;99.90;;;;;;5030796;28;20217;-80
2022/10/08 12:12:51;;;;;;;0.10;0.10;;;17.30;99.90;;;;;;5033236;28;20597;-79
2022/10/08 12:15:22;;;;;;;0.10;0.10;;;17.10;99.90;;;;;;5041594;28;20182;-79
2022/10/08 12:17:58;;;;;;;0.10;0.10;;;17.10;99.90;;;;;;5027158;28;20685;-80
2022/10/08 12:20:26;;;;;;;0.10;0.10;;;17.20;99.90;;;;;;5029373;28;20473;-80
2022/10/08 12:23:09;;;;;;;0.10;0.10;;;17.30;99.90;;;;;;5025868;28;20179;-80
2022/10/08 12:25:43;;;;;;;0.10;0.10;;;17.30;99.90;;;;;;5036777;28;20230;-80
2022/10/08 12:28:18;;;;;;;0.10;0.10;;;17.60;99.90;;;;;;5035137;28;20197;-79
2022/10/08 12:30:52;;;;;;;0.10;0.10;;;17.80;99.90;;;;;;5033152;28;20209;-80
2022/10/08 12:33:19;;;;;;;0.10;0.10;;;18.10;99.90;;;;;;5029222;28;20182;-80
2022/10/08 12:36:03;;;;;;;0.10;0.10;;;17.80;99.90;;;;;;5031457;28;20282;-82
2022/10/08 12:38:31;;;;;;;0.10;0.10;;;17.90;99.90;;;;;;5033432;28;20198;-80
2022/10/08 12:41:21;;;;;;;0.10;0.10;;;17.70;99.90;;;;;;5035855;28;20597;-82
2022/10/08 12:44:02;;;;;;;0.10;0.10;;;17.40;99.90;;;;;;5035171;28;20477;-80
2022/10/08 12:46:33;;;;;;;0.10;0.10;;;17.30;99.90;;;;;;5036996;28;20182;-81
2022/10/08 12:49:25;;;;;;;0.10;0.10;;;17.30;99.90;;;;;;5037535;28;20209;-79
2022/10/08 12:52:04;;;;;;;0.10;0.10;;;17.00;99.90;;;;;;5018378;28;20211;-79
2022/10/08 12:54:31;;;;;;;0.10;0.10;;;17.30;99.90;;;;;;5017203;28;20652;-79
2022/10/08 12:56:59;;;;;;;0.10;0.10;;;17.90;99.90;;;;;;5025422;28;20210;-80
2022/10/08 12:59:30;;;;;;;0.10;0.10;;;18.50;99.90;;;;;;5037392;28;20289;-80
2022/10/08 13:01:56;;;;;;;0.10;0.10;;;18.90;99.90;;;;;;5033100;28;20199;-79
2022/10/08 13:04:32;;;;;;;0.10;0.10;;;19.40;99.90;;;;;;5032252;28;20192;-81
2022/10/08 13:06:59;;;;;;;0.10;0.10;;;19.40;99.90;;;;;;5037714;28;20184;-82
2022/10/08 13:09:26;;;;;;;0.10;0.10;;;19.40;99.90;;;;;;5035957;28;20202;-79